sensor_id;sensor_type;location;lat;lon;timestamp;pressure;altitude;pressure_sealevel;temperature;humidity
31337;BME280;22846;42.654;23.314;2023-09-19T00:01:33;94890.06;;;25.80;38.51
31337;BME280;22846;42.654;23.314;2023-09-19T00:03:58;94895.25;;;25.78;38.68
31337;BME280;22846;42.654;23.314;2023-09-19T00:06:25;94886.31;;;25.74;38.90
31337;BME280;22846;42.654;23.314;2023-09-19T00:08:52;94888.72;;;25.72;38.46
31337;BME280;22846;42.654;23.314;2023-09-19T00:11:18;94888.72;;;25.72;38.50
31337;BME280;22846;42.654;23.314;2023-09-19T00:13:43;94893.13;;;25.70;38.56
31337;BME280;22846;42.654;23.314;2023-09-19T00:16:10;94897.84;;;25.69;38.63
31337;BME280;22846;42.654;23.314;2023-09-19T00:18:36;94890.50;;;25.66;38.47
31337;BME280;22846;42.654;23.314;2023-09-19T00:21:02;94886.66;;;25.64;38.22
31337;BME280;22846;42.654;23.314;2023-09-19T00:23:30;94880.75;;;25.65;38.58
31337;BME280;22846;42.654;23.314;2023-09-19T00:25:58;94880.00;;;25.65;38.61
31337;BME280;22846;42.654;23.314;2023-09-19T00:28:24;94874.94;;;25.63;38.59
31337;BME280;22846;42.654;23.314;2023-09-19T00:30:49;94873.41;;;25.62;38.82
31337;BME280;22846;42.654;23.314;2023-09-19T00:33:15;94874.63;;;25.62;38.58
31337;BME280;22846;42.654;23.314;2023-09-19T00:35:50;94873.53;;;25.59;38.62
31337;BME280;22846;42.654;23.314;2023-09-19T00:38:17;94866.50;;;25.58;38.44
31337;BME280;22846;42.654;23.314;2023-09-19T00:40:46;94863.78;;;25.58;38.70
31337;BME280;22846;42.654;23.314;2023-09-19T00:43:12;94861.81;;;25.59;38.49
31337;BME280;22846;42.654;23.314;2023-09-19T00:45:38;94859.53;;;25.57;38.50
31337;BME280;22846;42.654;23.314;2023-09-19T00:48:07;94865.41;;;25.56;38.59
31337;BME280;22846;42.654;23.314;2023-09-19T00:50:34;94868.16;;;25.56;38.63
31337;BME280;22846;42.654;23.314;2023-09-19T00:53:00;94871.00;;;25.52;38.30
31337;BME280;22846;42.654;23.314;2023-09-19T00:55:28;94868.06;;;25.47;38.41
31337;BME280;22846;42.654;23.314;2023-09-19T00:57:55;94875.41;;;25.50;38.41
31337;BME280;22846;42.654;23.314;2023-09-19T01:00:21;94866.09;;;25.47;38.69
31337;BME280;22846;42.654;23.314;2023-09-19T01:02:48;94868.94;;;25.44;38.59
31337;BME280;22846;42.654;23.314;2023-09-19T01:05:14;94874.41;;;25.44;38.62
31337;BME280;22846;42.654;23.314;2023-09-19T01:07:39;94861.59;;;25.41;39.14
31337;BME280;22846;42.654;23.314;2023-09-19T01:10:11;94872.53;;;25.41;38.72
31337;BME280;22846;42.654;23.314;2023-09-19T01:13:03;94869.47;;;25.39;38.66
31337;BME280;22846;42.654;23.314;2023-09-19T01:20:45;94868.06;;;25.34;39.08
31337;BME280;22846;42.654;23.314;2023-09-19T01:23:53;94867.72;;;25.32;38.77
31337;BME280;22846;42.654;23.314;2023-09-19T01:32:05;94873.28;;;25.29;39.44
31337;BME280;22846;42.654;23.314;2023-09-19T01:37:11;94869.03;;;25.28;39.75
31337;BME280;22846;42.654;23.314;2023-09-19T01:39:36;94870.66;;;25.25;39.20
31337;BME280;22846;42.654;23.314;2023-09-19T01:42:37;94861.47;;;25.19;39.44
31337;BME280;22846;42.654;23.314;2023-09-19T01:45:11;94857.44;;;25.24;39.28
31337;BME280;22846;42.654;23.314;2023-09-19T01:53:16;94866.94;;;25.19;39.52
31337;BME280;22846;42.654;23.314;2023-09-19T01:55:48;94861.59;;;25.16;39.59
31337;BME280;22846;42.654;23.314;2023-09-19T02:00:48;94864.84;;;25.11;39.59
31337;BME280;22846;42.654;23.314;2023-09-19T02:03:17;94881.59;;;25.13;39.40
31337;BME280;22846;42.654;23.314;2023-09-19T02:05:49;94880.50;;;25.10;39.57
31337;BME280;22846;42.654;23.314;2023-09-19T02:08:17;94877.03;;;25.10;39.50
31337;BME280;22846;42.654;23.314;2023-09-19T02:10:44;94877.50;;;25.05;39.71
31337;BME280;22846;42.654;23.314;2023-09-19T02:13:17;94877.63;;;25.01;39.60
31337;BME280;22846;42.654;23.314;2023-09-19T02:15:44;94870.16;;;25.02;39.72
31337;BME280;22846;42.654;23.314;2023-09-19T02:18:10;94870.28;;;24.98;39.61
31337;BME280;22846;42.654;23.314;2023-09-19T02:20:37;94876.53;;;24.99;39.94
31337;BME280;22846;42.654;23.314;2023-09-19T02:23:03;94874.19;;;24.97;39.52
31337;BME280;22846;42.654;23.314;2023-09-19T02:25:28;94872.34;;;24.94;39.92
31337;BME280;22846;42.654;23.314;2023-09-19T02:27:54;94871.56;;;24.94;39.72
31337;BME280;22846;42.654;23.314;2023-09-19T02:30:20;94861.84;;;24.93;40.28
31337;BME280;22846;42.654;23.314;2023-09-19T02:32:48;94860.44;;;24.88;39.89
31337;BME280;22846;42.654;23.314;2023-09-19T02:35:14;94862.72;;;24.90;40.26
31337;BME280;22846;42.654;23.314;2023-09-19T02:37:44;94863.16;;;24.88;39.73
31337;BME280;22846;42.654;23.314;2023-09-19T02:40:10;94858.91;;;24.87;39.77
31337;BME280;22846;42.654;23.314;2023-09-19T02:42:52;94853.09;;;24.85;39.98
31337;BME280;22846;42.654;23.314;2023-09-19T02:45:19;94836.13;;;24.78;39.92
31337;BME280;22846;42.654;23.314;2023-09-19T02:47:45;94848.06;;;24.84;40.31
31337;BME280;22846;42.654;23.314;2023-09-19T02:50:11;94844.56;;;24.83;39.99
31337;BME280;22846;42.654;23.314;2023-09-19T02:52:38;94838.34;;;24.83;39.87
31337;BME280;22846;42.654;23.314;2023-09-19T02:55:03;94836.91;;;24.78;39.87
31337;BME280;22846;42.654;23.314;2023-09-19T02:57:31;94841.47;;;24.81;40.06
31337;BME280;22846;42.654;23.314;2023-09-19T02:59:59;94834.59;;;24.77;40.14
31337;BME280;22846;42.654;23.314;2023-09-19T03:02:25;94841.47;;;24.81;40.05
31337;BME280;22846;42.654;23.314;2023-09-19T03:04:52;94836.47;;;24.80;39.95
31337;BME280;22846;42.654;23.314;2023-09-19T03:07:17;94832.97;;;24.79;39.96
31337;BME280;22846;42.654;23.314;2023-09-19T03:09:43;94830.25;;;24.79;40.55
31337;BME280;22846;42.654;23.314;2023-09-19T03:12:08;94825.63;;;24.77;40.31
31337;BME280;22846;42.654;23.314;2023-09-19T03:14:34;94818.63;;;24.76;40.53
31337;BME280;22846;42.654;23.314;2023-09-19T03:17:01;94826.06;;;24.75;40.40
31337;BME280;22846;42.654;23.314;2023-09-19T03:19:29;94828.47;;;24.73;40.36
31337;BME280;22846;42.654;23.314;2023-09-19T03:21:55;94832.41;;;24.72;40.56
31337;BME280;22846;42.654;23.314;2023-09-19T03:24:22;94828.13;;;24.71;40.23
31337;BME280;22846;42.654;23.314;2023-09-19T03:26:48;94816.84;;;24.69;40.42
31337;BME280;22846;42.654;23.314;2023-09-19T03:29:14;94824.31;;;24.69;40.53
31337;BME280;22846;42.654;23.314;2023-09-19T03:31:41;94828.97;;;24.68;40.49
31337;BME280;22846;42.654;23.314;2023-09-19T03:34:06;94823.97;;;24.67;40.58
31337;BME280;22846;42.654;23.314;2023-09-19T03:36:35;94825.16;;;24.66;40.36
31337;BME280;22846;42.654;23.314;2023-09-19T03:39:02;94830.72;;;24.62;40.92
31337;BME280;22846;42.654;23.314;2023-09-19T03:41:31;94830.72;;;24.62;40.23
31337;BME280;22846;42.654;23.314;2023-09-19T03:43:56;94836.63;;;24.61;40.58
31337;BME280;22846;42.654;23.314;2023-09-19T03:46:22;94834.91;;;24.67;41.22
31337;BME280;22846;42.654;23.314;2023-09-19T03:48:47;94841.59;;;24.78;41.29
31337;BME280;22846;42.654;23.314;2023-09-19T03:51:12;94840.84;;;24.90;41.67
31337;BME280;22846;42.654;23.314;2023-09-19T03:53:38;94843.06;;;25.07;42.03
31337;BME280;22846;42.654;23.314;2023-09-19T03:56:03;94843.88;;;25.20;41.29
31337;BME280;22846;42.654;23.314;2023-09-19T03:58:29;94848.91;;;25.34;41.73
31337;BME280;22846;42.654;23.314;2023-09-19T04:00:57;94848.16;;;25.46;41.85
31337;BME280;22846;42.654;23.314;2023-09-19T04:03:24;94849.34;;;25.58;42.47
31337;BME280;22846;42.654;23.314;2023-09-19T04:05:53;94841.56;;;25.68;42.69
31337;BME280;22846;42.654;23.314;2023-09-19T04:08:19;94848.69;;;25.78;43.60
31337;BME280;22846;42.654;23.314;2023-09-19T04:10:44;94857.31;;;25.89;43.27
31337;BME280;22846;42.654;23.314;2023-09-19T04:13:10;94855.56;;;25.95;43.64
31337;BME280;22846;42.654;23.314;2023-09-19T04:15:36;94858.06;;;26.02;44.03
31337;BME280;22846;42.654;23.314;2023-09-19T04:18:03;94867.13;;;26.12;43.36
31337;BME280;22846;42.654;23.314;2023-09-19T04:20:29;94866.25;;;26.15;43.95
31337;BME280;22846;42.654;23.314;2023-09-19T04:22:54;94863.06;;;26.16;44.19
31337;BME280;22846;42.654;23.314;2023-09-19T04:25:20;94856.13;;;26.24;43.69
31337;BME280;22846;42.654;23.314;2023-09-19T04:27:46;94842.75;;;26.26;41.68
31337;BME280;22846;42.654;23.314;2023-09-19T04:30:14;94846.91;;;26.31;40.94
31337;BME280;22846;42.654;23.314;2023-09-19T04:32:40;94844.03;;;26.34;42.09
31337;BME280;22846;42.654;23.314;2023-09-19T04:35:09;94846.78;;;26.34;42.42
31337;BME280;22846;42.654;23.314;2023-09-19T04:37:39;94848.63;;;26.37;42.07
31337;BME280;22846;42.654;23.314;2023-09-19T04:40:09;94849.38;;;26.38;42.38
31337;BME280;22846;42.654;23.314;2023-09-19T04:42:38;94838.03;;;26.39;42.02
31337;BME280;22846;42.654;23.314;2023-09-19T04:45:04;94841.53;;;26.40;42.12
31337;BME280;22846;42.654;23.314;2023-09-19T04:47:30;94837.22;;;26.39;42.18
31337;BME280;22846;42.654;23.314;2023-09-19T04:49:57;94836.78;;;26.40;41.99
31337;BME280;22846;42.654;23.314;2023-09-19T04:52:24;94840.66;;;26.43;41.87
31337;BME280;22846;42.654;23.314;2023-09-19T04:54:49;94842.19;;;26.44;42.00
31337;BME280;22846;42.654;23.314;2023-09-19T04:57:14;94840.19;;;26.44;41.93
31337;BME280;22846;42.654;23.314;2023-09-19T04:59:41;94839.44;;;26.44;41.55
31337;BME280;22846;42.654;23.314;2023-09-19T05:02:06;94830.31;;;26.47;42.01
31337;BME280;22846;42.654;23.314;2023-09-19T05:04:33;94834.59;;;26.48;41.75
31337;BME280;22846;42.654;23.314;2023-09-19T05:06:58;94824.69;;;26.50;41.90
31337;BME280;22846;42.654;23.314;2023-09-19T05:09:26;94828.97;;;26.51;41.74
31337;BME280;22846;42.654;23.314;2023-09-19T05:11:51;94825.78;;;26.52;41.60
31337;BME280;22846;42.654;23.314;2023-09-19T05:14:18;94834.31;;;26.54;41.74
31337;BME280;22846;42.654;23.314;2023-09-19T05:16:44;94835.84;;;26.55;41.59
31337;BME280;22846;42.654;23.314;2023-09-19T05:19:09;94834.97;;;26.58;41.69
31337;BME280;22846;42.654;23.314;2023-09-19T05:21:37;94831.78;;;26.60;42.05
31337;BME280;22846;42.654;23.314;2023-09-19T05:24:05;94829.38;;;26.62;41.84
31337;BME280;22846;42.654;23.314;2023-09-19T05:26:32;94829.22;;;26.65;42.15
31337;BME280;22846;42.654;23.314;2023-09-19T05:28:57;94817.06;;;26.66;42.21
31337;BME280;22846;42.654;23.314;2023-09-19T05:31:22;94825.16;;;26.70;41.91
31337;BME280;22846;42.654;23.314;2023-09-19T05:33:49;94816.94;;;26.70;41.75
31337;BME280;22846;42.654;23.314;2023-09-19T05:36:15;94817.56;;;26.74;41.84
31337;BME280;22846;42.654;23.314;2023-09-19T05:38:42;94819.41;;;26.77;41.96
31337;BME280;22846;42.654;23.314;2023-09-19T05:41:08;94825.22;;;26.79;41.95
31337;BME280;22846;42.654;23.314;2023-09-19T05:43:35;94826.75;;;26.80;42.00
31337;BME280;22846;42.654;23.314;2023-09-19T05:46:03;94812.13;;;26.83;41.66
31337;BME280;22846;42.654;23.314;2023-09-19T05:48:28;94812.44;;;26.85;41.63
31337;BME280;22846;42.654;23.314;2023-09-19T05:50:54;94812.75;;;26.87;42.01
31337;BME280;22846;42.654;23.314;2023-09-19T05:53:20;94815.03;;;26.88;41.88
31337;BME280;22846;42.654;23.314;2023-09-19T05:55:45;94813.84;;;26.89;41.29
31337;BME280;22846;42.654;23.314;2023-09-19T05:58:11;94813.84;;;26.89;41.59
31337;BME280;22846;42.654;23.314;2023-09-19T06:00:39;94810.22;;;26.92;41.77
31337;BME280;22846;42.654;23.314;2023-09-19T06:03:06;94804.25;;;26.94;41.56
31337;BME280;22846;42.654;23.314;2023-09-19T06:05:33;94811.28;;;26.95;41.53
31337;BME280;22846;42.654;23.314;2023-09-19T06:07:59;94801.84;;;26.96;41.54
31337;BME280;22846;42.654;23.314;2023-09-19T06:10:33;94802.91;;;26.98;41.69
31337;BME280;22846;42.654;23.314;2023-09-19T06:12:59;94800.94;;;26.99;41.26
31337;BME280;22846;42.654;23.314;2023-09-19T06:15:25;94806.75;;;27.01;41.47
31337;BME280;22846;42.654;23.314;2023-09-19T06:17:55;94802.06;;;27.01;41.49
31337;BME280;22846;42.654;23.314;2023-09-19T06:20:21;94807.09;;;27.03;41.30
31337;BME280;22846;42.654;23.314;2023-09-19T06:22:48;94801.16;;;27.04;41.11
31337;BME280;22846;42.654;23.314;2023-09-19T06:25:15;94797.50;;;27.07;41.35
31337;BME280;22846;42.654;23.314;2023-09-19T06:27:47;94799.78;;;27.09;41.44
31337;BME280;22846;42.654;23.314;2023-09-19T06:30:13;94782.13;;;27.10;41.07
31337;BME280;22846;42.654;23.314;2023-09-19T06:32:39;94795.41;;;27.11;41.26
31337;BME280;22846;42.654;23.314;2023-09-19T06:35:05;94788.25;;;27.14;41.12
31337;BME280;22846;42.654;23.314;2023-09-19T06:37:36;94781.97;;;27.13;41.20
31337;BME280;22846;42.654;23.314;2023-09-19T06:40:05;94790.09;;;27.17;40.96
31337;BME280;22846;42.654;23.314;2023-09-19T06:42:31;94793.91;;;27.19;41.11
31337;BME280;22846;42.654;23.314;2023-09-19T06:44:56;94793.44;;;27.21;40.96
31337;BME280;22846;42.654;23.314;2023-09-19T06:47:21;94800.47;;;27.22;41.13
31337;BME280;22846;42.654;23.314;2023-09-19T06:49:47;94803.53;;;27.24;41.05
31337;BME280;22846;42.654;23.314;2023-09-19T06:52:13;94798.81;;;27.24;40.97
31337;BME280;22846;42.654;23.314;2023-09-19T06:54:38;94792.88;;;27.26;41.12
31337;BME280;22846;42.654;23.314;2023-09-19T06:57:05;94794.38;;;27.27;41.25
31337;BME280;22846;42.654;23.314;2023-09-19T06:59:31;94797.91;;;27.27;41.01
31337;BME280;22846;42.654;23.314;2023-09-19T07:01:57;94810.75;;;27.30;40.91
31337;BME280;22846;42.654;23.314;2023-09-19T07:04:24;94808.00;;;27.30;41.13
31337;BME280;22846;42.654;23.314;2023-09-19T07:06:50;94804.94;;;27.28;41.20
31337;BME280;22846;42.654;23.314;2023-09-19T07:09:17;94812.69;;;27.30;40.93
31337;BME280;22846;42.654;23.314;2023-09-19T07:11:45;94811.03;;;27.32;40.88
31337;BME280;22846;42.654;23.314;2023-09-19T07:14:11;94804.00;;;27.31;40.96
31337;BME280;22846;42.654;23.314;2023-09-19T07:16:37;94803.13;;;27.34;40.91
31337;BME280;22846;42.654;23.314;2023-09-19T07:19:05;94810.13;;;27.35;41.07
31337;BME280;22846;42.654;23.314;2023-09-19T07:21:30;94804.19;;;27.36;40.93
31337;BME280;22846;42.654;23.314;2023-09-19T07:23:59;94812.41;;;27.36;40.88
31337;BME280;22846;42.654;23.314;2023-09-19T07:26:26;94814.72;;;27.38;40.89
31337;BME280;22846;42.654;23.314;2023-09-19T07:28:52;94815.47;;;27.38;40.79
31337;BME280;22846;42.654;23.314;2023-09-19T07:31:18;94811.97;;;27.38;40.87
31337;BME280;22846;42.654;23.314;2023-09-19T07:33:43;94813.63;;;27.35;40.76
31337;BME280;22846;42.654;23.314;2023-09-19T07:36:10;94811.53;;;27.39;40.94
31337;BME280;22846;42.654;23.314;2023-09-19T07:38:36;94817.75;;;27.40;40.76
31337;BME280;22846;42.654;23.314;2023-09-19T07:41:01;94812.28;;;27.40;40.74
31337;BME280;22846;42.654;23.314;2023-09-19T07:43:27;94810.31;;;27.40;40.78
31337;BME280;22846;42.654;23.314;2023-09-19T07:45:53;94810.31;;;27.40;40.81
31337;BME280;22846;42.654;23.314;2023-09-19T07:48:18;94813.81;;;27.41;40.77
31337;BME280;22846;42.654;23.314;2023-09-19T07:50:44;94821.59;;;27.42;41.00
31337;BME280;22846;42.654;23.314;2023-09-19T07:53:09;94813.38;;;27.42;40.78
31337;BME280;22846;42.654;23.314;2023-09-19T07:55:37;94817.63;;;27.43;40.80
31337;BME280;22846;42.654;23.314;2023-09-19T07:58:03;94821.16;;;27.44;40.96
31337;BME280;22846;42.654;23.314;2023-09-19T08:00:30;94816.41;;;27.44;40.75
31337;BME280;22846;42.654;23.314;2023-09-19T08:02:57;94817.19;;;27.45;40.77
31337;BME280;22846;42.654;23.314;2023-09-19T08:05:23;94820.69;;;27.45;40.82
31337;BME280;22846;42.654;23.314;2023-09-19T08:07:48;94815.97;;;27.46;40.76
31337;BME280;22846;42.654;23.314;2023-09-19T08:10:14;94807.75;;;27.46;40.72
31337;BME280;22846;42.654;23.314;2023-09-19T08:12:44;94796.75;;;27.46;40.79
31337;BME280;22846;42.654;23.314;2023-09-19T08:15:13;94795.53;;;27.47;40.83
31337;BME280;22846;42.654;23.314;2023-09-19T08:17:39;94792.34;;;27.48;40.78
31337;BME280;22846;42.654;23.314;2023-09-19T08:20:05;94793.09;;;27.49;41.00
31337;BME280;22846;42.654;23.314;2023-09-19T08:22:31;94785.31;;;27.47;40.77
31337;BME280;22846;42.654;23.314;2023-09-19T08:24:57;94790.06;;;27.47;40.62
31337;BME280;22846;42.654;23.314;2023-09-19T08:27:24;94777.09;;;27.47;40.73
31337;BME280;22846;42.654;23.314;2023-09-19T08:29:52;94784.41;;;27.50;40.72
31337;BME280;22846;42.654;23.314;2023-09-19T08:32:18;94790.66;;;27.51;40.79
31337;BME280;22846;42.654;23.314;2023-09-19T08:34:49;94789.44;;;27.52;40.69
31337;BME280;22846;42.654;23.314;2023-09-19T08:37:14;94795.69;;;27.52;40.70
31337;BME280;22846;42.654;23.314;2023-09-19T08:39:39;94798.00;;;27.54;40.71
31337;BME280;22846;42.654;23.314;2023-09-19T08:42:05;94798.91;;;27.51;40.73
31337;BME280;22846;42.654;23.314;2023-09-19T08:44:36;94792.50;;;27.54;40.81
31337;BME280;22846;42.654;23.314;2023-09-19T08:47:29;94792.03;;;27.55;40.85
31337;BME280;22846;42.654;23.314;2023-09-19T08:50:04;94785.50;;;27.53;40.70
31337;BME280;22846;42.654;23.314;2023-09-19T08:52:43;94788.84;;;27.57;40.81
31337;BME280;22846;42.654;23.314;2023-09-19T08:55:13;94784.88;;;27.58;40.74
31337;BME280;22846;42.654;23.314;2023-09-19T08:57:45;94775.88;;;27.57;40.72
31337;BME280;22846;42.654;23.314;2023-09-19T09:00:14;94777.41;;;27.58;40.76
31337;BME280;22846;42.654;23.314;2023-09-19T09:02:43;94776.22;;;27.59;40.65
31337;BME280;22846;42.654;23.314;2023-09-19T09:05:09;94777.72;;;27.60;40.59
31337;BME280;22846;42.654;23.314;2023-09-19T09:07:38;94777.72;;;27.60;40.65
31337;BME280;22846;42.654;23.314;2023-09-19T09:10:04;94768.25;;;27.61;40.62
31337;BME280;22846;42.654;23.314;2023-09-19T09:12:30;94767.66;;;27.57;40.42
31337;BME280;22846;42.654;23.314;2023-09-19T09:14:55;94775.31;;;27.62;40.67
31337;BME280;22846;42.654;23.314;2023-09-19T09:17:23;94771.34;;;27.63;40.55
31337;BME280;22846;42.654;23.314;2023-09-19T09:19:52;94772.88;;;27.64;40.72
31337;BME280;22846;42.654;23.314;2023-09-19T09:22:17;94762.66;;;27.65;40.82
31337;BME280;22846;42.654;23.314;2023-09-19T09:24:58;94763.13;;;27.63;40.53
31337;BME280;22846;42.654;23.314;2023-09-19T09:27:24;94753.34;;;27.62;40.62
31337;BME280;22846;42.654;23.314;2023-09-19T09:29:51;94753.19;;;27.66;40.71
31337;BME280;22846;42.654;23.314;2023-09-19T09:32:24;94748.47;;;27.66;40.75
31337;BME280;22846;42.654;23.314;2023-09-19T09:34:55;94757.47;;;27.67;40.50
31337;BME280;22846;42.654;23.314;2023-09-19T09:37:21;94750.00;;;27.67;40.65
31337;BME280;22846;42.654;23.314;2023-09-19T09:39:56;94748.47;;;27.66;40.91
31337;BME280;22846;42.654;23.314;2023-09-19T09:42:30;94743.31;;;27.68;40.70
31337;BME280;22846;42.654;23.314;2023-09-19T09:47:45;94733.81;;;27.69;40.68
31337;BME280;22846;42.654;23.314;2023-09-19T09:50:48;94732.59;;;27.70;40.83
31337;BME280;22846;42.654;23.314;2023-09-19T09:56:06;94717.66;;;27.71;40.92
31337;BME280;22846;42.654;23.314;2023-09-19T09:58:33;94720.41;;;27.71;40.90
31337;BME280;22846;42.654;23.314;2023-09-19T10:01:00;94717.22;;;27.73;40.81
31337;BME280;22846;42.654;23.314;2023-09-19T10:03:38;94719.97;;;27.73;40.78
31337;BME280;22846;42.654;23.314;2023-09-19T10:06:10;94719.19;;;27.72;40.87
31337;BME280;22846;42.654;23.314;2023-09-19T10:11:44;94722.25;;;27.74;40.90
31337;BME280;22846;42.654;23.314;2023-09-19T10:14:15;94723.00;;;27.75;41.00
31337;BME280;22846;42.654;23.314;2023-09-19T10:16:48;94715.97;;;27.74;40.96
31337;BME280;22846;42.654;23.314;2023-09-19T10:19:37;94716.28;;;27.76;41.03
31337;BME280;22846;42.654;23.314;2023-09-19T10:22:12;94717.81;;;27.77;40.87
31337;BME280;22846;42.654;23.314;2023-09-19T10:24:40;94712.31;;;27.77;40.81
31337;BME280;22846;42.654;23.314;2023-09-19T10:27:07;94714.00;;;27.74;40.93
31337;BME280;22846;42.654;23.314;2023-09-19T10:29:36;94718.59;;;27.77;40.84
31337;BME280;22846;42.654;23.314;2023-09-19T10:32:05;94720.09;;;27.78;40.59
31337;BME280;22846;42.654;23.314;2023-09-19T10:34:34;94710.34;;;27.77;40.96
31337;BME280;22846;42.654;23.314;2023-09-19T10:37:02;94699.81;;;27.76;40.98
31337;BME280;22846;42.654;23.314;2023-09-19T10:39:32;94707.91;;;27.79;40.65
31337;BME280;22846;42.654;23.314;2023-09-19T10:42:01;94707.91;;;27.79;40.69
31337;BME280;22846;42.654;23.314;2023-09-19T10:44:32;94704.41;;;27.79;40.83
31337;BME280;22846;42.654;23.314;2023-09-19T10:46:57;94705.16;;;27.79;40.92
31337;BME280;22846;42.654;23.314;2023-09-19T10:49:23;94707.91;;;27.79;40.88
31337;BME280;22846;42.654;23.314;2023-09-19T10:51:52;94698.91;;;27.79;40.95
31337;BME280;22846;42.654;23.314;2023-09-19T10:54:22;94692.19;;;27.80;40.84
31337;BME280;22846;42.654;23.314;2023-09-19T10:56:52;94690.66;;;27.79;40.78
31337;BME280;22846;42.654;23.314;2023-09-19T10:59:20;94690.19;;;27.80;40.72
31337;BME280;22846;42.654;23.314;2023-09-19T11:01:47;94694.47;;;27.81;40.84
31337;BME280;22846;42.654;23.314;2023-09-19T11:04:32;94689.75;;;27.82;41.39
31337;BME280;22846;42.654;23.314;2023-09-19T11:07:11;94687.03;;;27.82;40.83
31337;BME280;22846;42.654;23.314;2023-09-19T11:09:53;94687.44;;;27.80;41.13
31337;BME280;22846;42.654;23.314;2023-09-19T11:14:57;94683.50;;;27.81;40.80
31337;BME280;22846;42.654;23.314;2023-09-19T11:17:33;94678.78;;;27.82;40.83
31337;BME280;22846;42.654;23.314;2023-09-19T11:30:51;94667.78;;;27.82;40.88
31337;BME280;22846;42.654;23.314;2023-09-19T11:36:02;94661.06;;;27.83;41.09
31337;BME280;22846;42.654;23.314;2023-09-19T11:46:33;94641.81;;;27.83;40.91
31337;BME280;22846;42.654;23.314;2023-09-19T11:49:08;94635.09;;;27.84;40.97
31337;BME280;22846;42.654;23.314;2023-09-19T11:51:43;94627.66;;;27.84;41.24
31337;BME280;22846;42.654;23.314;2023-09-19T11:54:13;94634.66;;;27.85;41.14
31337;BME280;22846;42.654;23.314;2023-09-19T11:56:45;94629.19;;;27.85;40.98
31337;BME280;22846;42.654;23.314;2023-09-19T11:59:11;94627.94;;;27.86;40.77
31337;BME280;22846;42.654;23.314;2023-09-19T12:01:38;94627.94;;;27.86;40.97
31337;BME280;22846;42.654;23.314;2023-09-19T12:04:08;94627.66;;;27.84;41.06
31337;BME280;22846;42.654;23.314;2023-09-19T12:06:36;94634.94;;;27.87;40.90
31337;BME280;22846;42.654;23.314;2023-09-19T12:09:04;94625.50;;;27.88;41.23
31337;BME280;22846;42.654;23.314;2023-09-19T12:11:42;94610.22;;;27.87;41.46
31337;BME280;22846;42.654;23.314;2023-09-19T12:14:09;94612.53;;;27.89;41.03
31337;BME280;22846;42.654;23.314;2023-09-19T12:16:35;94606.25;;;27.88;41.30
31337;BME280;22846;42.654;23.314;2023-09-19T12:19:22;94607.78;;;27.89;41.00
31337;BME280;22846;42.654;23.314;2023-09-19T12:21:58;94600.03;;;27.88;41.16
31337;BME280;22846;42.654;23.314;2023-09-19T12:24:26;94600.31;;;27.90;40.97
31337;BME280;22846;42.654;23.314;2023-09-19T12:26:59;94596.34;;;27.91;40.99
31337;BME280;22846;42.654;23.314;2023-09-19T12:29:27;94587.34;;;27.90;40.58
31337;BME280;22846;42.654;23.314;2023-09-19T12:31:59;94593.91;;;27.93;40.79
31337;BME280;22846;42.654;23.314;2023-09-19T12:34:31;94593.47;;;27.94;40.55
31337;BME280;22846;42.654;23.314;2023-09-19T12:37:09;94582.47;;;27.94;40.74
31337;BME280;22846;42.654;23.314;2023-09-19T12:39:42;94591.00;;;27.96;41.03
31337;BME280;22846;42.654;23.314;2023-09-19T12:42:11;94587.03;;;27.97;40.88
31337;BME280;22846;42.654;23.314;2023-09-19T12:44:41;94572.84;;;27.99;40.47
31337;BME280;22846;42.654;23.314;2023-09-19T12:47:14;94576.34;;;27.99;40.74
31337;BME280;22846;42.654;23.314;2023-09-19T12:52:26;94580.91;;;28.02;41.01
31337;BME280;22846;42.654;23.314;2023-09-19T12:54:59;94574.66;;;28.02;40.80
31337;BME280;22846;42.654;23.314;2023-09-19T12:57:28;94574.34;;;28.00;40.80
31337;BME280;22846;42.654;23.314;2023-09-19T12:59:57;94575.69;;;28.04;41.55
31337;BME280;22846;42.654;23.314;2023-09-19T13:02:22;94570.22;;;28.04;40.70
31337;BME280;22846;42.654;23.314;2023-09-19T13:04:54;94565.19;;;28.03;40.92
31337;BME280;22846;42.654;23.314;2023-09-19T13:07:43;94559.22;;;28.04;40.94
31337;BME280;22846;42.654;23.314;2023-09-19T13:10:09;94547.47;;;28.04;40.91
31337;BME280;22846;42.654;23.314;2023-09-19T13:12:36;94561.06;;;28.07;40.83
31337;BME280;22846;42.654;23.314;2023-09-19T13:15:12;94552.81;;;28.07;41.21
31337;BME280;22846;42.654;23.314;2023-09-19T13:17:56;94550.38;;;28.09;40.65
31337;BME280;22846;42.654;23.314;2023-09-19T13:20:27;94558.13;;;28.11;40.92
31337;BME280;22846;42.654;23.314;2023-09-19T13:22:53;94539.84;;;28.08;40.58
31337;BME280;22846;42.654;23.314;2023-09-19T13:25:20;94545.19;;;28.11;40.62
31337;BME280;22846;42.654;23.314;2023-09-19T13:27:53;94537.69;;;28.12;41.19
31337;BME280;22846;42.654;23.314;2023-09-19T13:30:22;94531.72;;;28.13;40.50
31337;BME280;22846;42.654;23.314;2023-09-19T13:32:48;94527.47;;;28.12;40.87
31337;BME280;22846;42.654;23.314;2023-09-19T13:35:14;94529.28;;;28.15;41.33
31337;BME280;22846;42.654;23.314;2023-09-19T13:37:40;94523.31;;;28.16;40.61
31337;BME280;22846;42.654;23.314;2023-09-19T13:40:14;94533.53;;;28.16;40.94
31337;BME280;22846;42.654;23.314;2023-09-19T13:42:40;94531.09;;;28.18;40.61
31337;BME280;22846;42.654;23.314;2023-09-19T13:45:07;94533.38;;;28.19;40.99
31337;BME280;22846;42.654;23.314;2023-09-19T13:47:33;94530.97;;;28.21;41.04
31337;BME280;22846;42.654;23.314;2023-09-19T13:50:02;94529.41;;;28.20;40.93
31337;BME280;22846;42.654;23.314;2023-09-19T13:52:29;94523.91;;;28.20;40.98
31337;BME280;22846;42.654;23.314;2023-09-19T13:54:55;94520.72;;;28.22;41.04